This is the latest recevied weather packets stored in our database for station/object 5B4APJ-13. If no packets are shown the sender has not sent any weather packets the latest 10 day(s).
| Time | Temp. | Humidity | Pressure | Rain* | Wind** | Luminosity | Snow |
|---|---|---|---|---|---|---|---|
| 1777917423 | 11.67° C | 69% | 1011.1 hPa | 0 mm | 0.89 m/s, 240° | 0 W/m² | - |
| 1777917123 | 11.67° C | 68% | 1011 hPa | 0 mm | 0.89 m/s, 230° | 0 W/m² | - |
| 1777916823 | 11.67° C | 67% | 1011 hPa | 0 mm | 0.89 m/s, 258° | 0 W/m² | - |
| 1777916523 | 11.67° C | 70% | 1011 hPa | 0 mm | 0.89 m/s, 258° | 0 W/m² | - |
| 1777916223 | 12.22° C | 68% | 1010.9 hPa | 0 mm | 0.89 m/s, 246° | 0 W/m² | - |
| 1777915923 | 12.22° C | 68% | 1010.8 hPa | 0 mm | 0.89 m/s, 262° | 0 W/m² | - |
| 1777915623 | 12.22° C | 68% | 1010.8 hPa | 0 mm | 0.89 m/s, 231° | 0 W/m² | - |
| 1777915323 | 12.22° C | 68% | 1010.6 hPa | 0 mm | 0 m/s | 0 W/m² | - |
| 1777915024 | 12.78° C | 66% | 1010.7 hPa | 0 mm | 0 m/s | 0 W/m² | - |
| 1777914723 | 12.78° C | 65% | 1010.4 hPa | 0 mm | 0 m/s | 0 W/m² | - |
| 1777914423 | 13.33° C | 63% | 1010.4 hPa | 0 mm | 0 m/s | 0 W/m² | - |
| 1777914123 | 13.33° C | 62% | 1010.5 hPa | 0 mm | 0.89 m/s, 247° | 0 W/m² | - |
| 1777913823 | 13.33° C | 60% | 1010.6 hPa | 0 mm | 0.89 m/s, 267° | 0 W/m² | - |
| 1777913523 | 13.33° C | 59% | 1010.3 hPa | 0 mm | 1.79 m/s, 280° | 0 W/m² | - |
| 1777913223 | 13.89° C | 60% | 1010.3 hPa | 0 mm | 1.34 m/s, 276° | 0 W/m² | - |
| 1777912923 | 13.89° C | 59% | 1010.4 hPa | 0 mm | 1.34 m/s, 291° | 1 W/m² | - |
| 1777912623 | 13.89° C | 58% | 1010.2 hPa | 0 mm | 2.24 m/s, 279° | 2 W/m² | - |
| 1777912323 | 13.89° C | 57% | 1010 hPa | 0 mm | 2.68 m/s, 293° | 3 W/m² | - |
| 1777912023 | 13.89° C | 57% | 1010.1 hPa | 0 mm | 2.68 m/s, 303° | 5 W/m² | - |
| 1777911723 | 13.89° C | 56% | 1010.2 hPa | 0 mm | 1.79 m/s, 277° | 7 W/m² | - |
| 1777911423 | 13.89° C | 57% | 1010.1 hPa | 0 mm | 1.34 m/s, 287° | 13 W/m² | - |
| 1777911123 | 14.44° C | 56% | 1010 hPa | 0 mm | 1.34 m/s, 267° | 16 W/m² | - |
| 1777910822 | 14.44° C | 56% | 1010.1 hPa | 0 mm | 0.89 m/s, 280° | 19 W/m² | - |
| 1777910523 | 14.44° C | 56% | 1010.1 hPa | 0 mm | 2.24 m/s, 275° | 23 W/m² | - |
| 1777910223 | 14.44° C | 55% | 1009.8 hPa | 0 mm | 4.02 m/s, 271° | 26 W/m² | - |
* Rain latest hour (hover to see other rain measurements)
** Current wind speed in m/s (hover to see current wind gust speed)